Hicks Airfield Weather

No METAR data is available for Hicks Airfield, and nearby Alliance Airport's METAR data is commonly used by area pilots. Weather infomation is also available on 126.925 mhz.

  • Current KAFW METAR
    (5.8nm NE) VFR
    Raw Text: KAFW 191753Z 02009KT 10SM FEW020 BKN035 OVC043 17/11 A3013 RMK AO2 SLP200 T01670106 10167 20144 58001
    Wind: 20° @ 9kts
    Visibility: 10+sm
    Clouds (AGL): FEW at 2000ft
    Temperature: 16.7°C
    Dew Point: 10.6°C
    Altimeter: 30.13 inHg
  • Current KAFW TAF
    (5.8nm NE)
    Raw Text: KAFW 191730Z 1918/2018 02011KT P6SM FEW025 OVC035 FM191900 02010KT P6SM BKN035 FM200200 04007KT P6SM OVC025 FM200700 02006KT P6SM OVC009 FM201000 04012KT 4SM SHRA BR VCTS OVC006CB